Com866 at CVG


#1

Comair 866 having a hard time getting into CVG,3rd try, Thunderstorm In JAN??? NOW!


#2

http://flightaware.com/live/flight/COM866


#3

2006/01/02 23:23
KCVG 022323Z 20004KT 4SM -TSRA BR BKN029CB OVC060 11/11 A2959

2006/01/02 23:21
KCVG 022321Z 030024 22006KT P6SM OVC050
TEMPO 0002 5SM -SHRA BR OVC025CB
FM0200 24009KT P6SM BKN040
TEMPO 0204 OVC025
FM0400 27007KT 4SM BR OVC015
FM0700 29007KT 4SM BR OVC006
FM1600 31008KT P6SM OVC012
FM2000 29005KT P6SM OVC020